sensor_id;sensor_type;location;lat;lon;timestamp;pressure;altitude;pressure_sealevel;temperature;humidity
8140;BME280;4111;50.972;7.072;2022-11-20T00:01:19;100763.53;;;4.85;79.24
8140;BME280;4111;50.972;7.072;2022-11-20T00:03:46;100755.66;;;4.64;78.89
8140;BME280;4111;50.972;7.072;2022-11-20T00:06:16;100755.66;;;4.64;79.29
8140;BME280;4111;50.972;7.072;2022-11-20T00:08:43;100759.41;;;4.76;79.50
8140;BME280;4111;50.972;7.072;2022-11-20T00:11:14;100752.78;;;4.65;79.09
8140;BME280;4111;50.972;7.072;2022-11-20T00:13:43;100759.81;;;4.53;79.47
8140;BME280;4111;50.972;7.072;2022-11-20T00:16:13;100757.13;;;4.60;79.85
8140;BME280;4111;50.972;7.072;2022-11-20T00:18:40;100757.75;;;4.75;80.09
8140;BME280;4111;50.972;7.072;2022-11-20T00:21:17;100755.03;;;4.88;80.17
8140;BME280;4111;50.972;7.072;2022-11-20T00:23:44;100755.22;;;4.93;79.67
8140;BME280;4111;50.972;7.072;2022-11-20T00:26:13;100759.59;;;4.74;79.30
8140;BME280;4111;50.972;7.072;2022-11-20T00:28:42;100765.81;;;4.62;79.26
8140;BME280;4111;50.972;7.072;2022-11-20T00:31:12;100758.56;;;4.69;79.55
8140;BME280;4111;50.972;7.072;2022-11-20T00:33:39;100762.28;;;4.68;79.61
8140;BME280;4111;50.972;7.072;2022-11-20T00:36:08;100757.13;;;4.73;79.62
8140;BME280;4111;50.972;7.072;2022-11-20T00:38:35;100764.38;;;4.72;79.78
8140;BME280;4111;50.972;7.072;2022-11-20T00:41:04;100766.84;;;4.74;79.59
8140;BME280;4111;50.972;7.072;2022-11-20T00:43:31;100763.13;;;4.88;79.86
8140;BME280;4111;50.972;7.072;2022-11-20T00:46:06;100749.22;;;4.91;79.68
8140;BME280;4111;50.972;7.072;2022-11-20T00:48:33;100760.22;;;4.90;79.71
8140;BME280;4111;50.972;7.072;2022-11-20T00:50:59;100758.13;;;4.85;80.06
8140;BME280;4111;50.972;7.072;2022-11-20T00:53:26;100757.75;;;4.88;79.71
8140;BME280;4111;50.972;7.072;2022-11-20T00:58:25;100744.91;;;4.64;79.46
8140;BME280;4111;50.972;7.072;2022-11-20T01:01:00;100755.47;;;4.59;79.69
8140;BME280;4111;50.972;7.072;2022-11-20T01:03:27;100745.53;;;4.66;80.27
8140;BME280;4111;50.972;7.072;2022-11-20T01:05:54;100741.41;;;4.63;79.85
8140;BME280;4111;50.972;7.072;2022-11-20T01:08:20;100738.91;;;4.75;79.88
8140;BME280;4111;50.972;7.072;2022-11-20T01:10:47;100744.91;;;4.77;79.76
8140;BME280;4111;50.972;7.072;2022-11-20T01:13:13;100748.22;;;4.79;79.98
8140;BME280;4111;50.972;7.072;2022-11-20T01:16:22;100754.44;;;4.86;79.78
8140;BME280;4111;50.972;7.072;2022-11-20T01:18:51;100753.41;;;4.81;79.39
8140;BME280;4111;50.972;7.072;2022-11-20T01:21:21;100747.78;;;4.75;79.47
8140;BME280;4111;50.972;7.072;2022-11-20T01:23:48;100746.38;;;4.73;79.54
8140;BME280;4111;50.972;7.072;2022-11-20T01:26:18;100745.31;;;4.67;79.36
8140;BME280;4111;50.972;7.072;2022-11-20T01:28:45;100737.47;;;4.66;79.29
8140;BME280;4111;50.972;7.072;2022-11-20T01:31:13;100740.38;;;4.71;79.33
8140;BME280;4111;50.972;7.072;2022-11-20T01:33:40;100749.44;;;4.70;79.42
8140;BME280;4111;50.972;7.072;2022-11-20T01:36:08;100736.22;;;4.62;79.35
8140;BME280;4111;50.972;7.072;2022-11-20T01:38:35;100741.41;;;4.63;79.29
8140;BME280;4111;50.972;7.072;2022-11-20T01:41:02;100738.91;;;4.55;79.46
8140;BME280;4111;50.972;7.072;2022-11-20T01:43:28;100731.66;;;4.55;80.00
8140;BME280;4111;50.972;7.072;2022-11-20T01:48:54;100737.88;;;4.69;79.78
8140;BME280;4111;50.972;7.072;2022-11-20T01:51:30;100738.91;;;4.62;79.64
8140;BME280;4111;50.972;7.072;2022-11-20T01:54:02;100735.81;;;4.65;79.81
8140;BME280;4111;50.972;7.072;2022-11-20T01:56:33;100731.25;;;4.72;79.55
8140;BME280;4111;50.972;7.072;2022-11-20T01:59:04;100728.78;;;4.57;79.53
8140;BME280;4111;50.972;7.072;2022-11-20T02:01:33;100731.28;;;4.59;79.39
8140;BME280;4111;50.972;7.072;2022-11-20T02:04:00;100729.59;;;4.71;79.79
8140;BME280;4111;50.972;7.072;2022-11-20T02:06:35;100729.38;;;4.79;79.53
8140;BME280;4111;50.972;7.072;2022-11-20T02:09:02;100719.88;;;4.70;79.33
8140;BME280;4111;50.972;7.072;2022-11-20T02:11:30;100728.97;;;4.55;79.68
8140;BME280;4111;50.972;7.072;2022-11-20T02:13:57;100723.81;;;4.54;79.93
8140;BME280;4111;50.972;7.072;2022-11-20T02:18:54;100723.00;;;4.53;80.24
8140;BME280;4111;50.972;7.072;2022-11-20T02:21:27;100719.69;;;4.65;80.38
8140;BME280;4111;50.972;7.072;2022-11-20T02:24:07;100714.09;;;4.60;80.41
8140;BME280;4111;50.972;7.072;2022-11-20T02:26:41;100705.00;;;4.61;80.42
8140;BME280;4111;50.972;7.072;2022-11-20T02:29:08;100708.09;;;4.71;80.82
8140;BME280;4111;50.972;7.072;2022-11-20T02:31:40;100702.69;;;4.77;80.86
8140;BME280;4111;50.972;7.072;2022-11-20T02:34:08;100696.94;;;4.61;80.37
8140;BME280;4111;50.972;7.072;2022-11-20T02:36:35;100704.38;;;4.59;80.62
8140;BME280;4111;50.972;7.072;2022-11-20T02:39:03;100714.28;;;4.71;80.74
8140;BME280;4111;50.972;7.072;2022-11-20T02:41:34;100712.63;;;4.77;80.74
8140;BME280;4111;50.972;7.072;2022-11-20T02:44:02;100712.63;;;4.77;80.74
8140;BME280;4111;50.972;7.072;2022-11-20T02:46:30;100709.53;;;4.80;80.26
8140;BME280;4111;50.972;7.072;2022-11-20T02:48:57;100700.22;;;4.76;80.26
8140;BME280;4111;50.972;7.072;2022-11-20T02:51:24;100713.06;;;4.67;80.21
8140;BME280;4111;50.972;7.072;2022-11-20T02:53:50;100694.44;;;4.66;80.51
8140;BME280;4111;50.972;7.072;2022-11-20T02:56:17;100696.94;;;4.74;80.55
8140;BME280;4111;50.972;7.072;2022-11-20T02:58:43;100687.41;;;4.78;80.66
8140;BME280;4111;50.972;7.072;2022-11-20T03:01:10;100691.13;;;4.77;80.66
8140;BME280;4111;50.972;7.072;2022-11-20T03:03:36;100674.97;;;4.77;80.53
8140;BME280;4111;50.972;7.072;2022-11-20T03:06:03;100678.06;;;4.81;80.72
8140;BME280;4111;50.972;7.072;2022-11-20T03:08:29;100676.19;;;4.81;80.69
8140;BME280;4111;50.972;7.072;2022-11-20T03:10:56;100673.75;;;4.73;80.78
8140;BME280;4111;50.972;7.072;2022-11-20T03:13:22;100678.28;;;4.66;80.40
8140;BME280;4111;50.972;7.072;2022-11-20T03:15:48;100675.00;;;4.57;80.30
8140;BME280;4111;50.972;7.072;2022-11-20T03:18:15;100666.28;;;4.62;81.00
8140;BME280;4111;50.972;7.072;2022-11-20T03:20:41;100677.69;;;4.57;81.07
8140;BME280;4111;50.972;7.072;2022-11-20T03:23:08;100673.78;;;4.53;81.15
8140;BME280;4111;50.972;7.072;2022-11-20T03:25:34;100673.56;;;4.54;81.21
8140;BME280;4111;50.972;7.072;2022-11-20T03:28:01;100673.34;;;4.56;81.54
8140;BME280;4111;50.972;7.072;2022-11-20T03:30:28;100670.88;;;4.54;81.57
8140;BME280;4111;50.972;7.072;2022-11-20T03:32:56;100673.34;;;4.63;81.99
8140;BME280;4111;50.972;7.072;2022-11-20T03:35:22;100668.81;;;4.56;81.82
8140;BME280;4111;50.972;7.072;2022-11-20T03:37:49;100670.44;;;4.64;81.83
8140;BME280;4111;50.972;7.072;2022-11-20T03:40:15;100673.13;;;4.57;81.68
8140;BME280;4111;50.972;7.072;2022-11-20T03:42:42;100677.28;;;4.53;81.99
8140;BME280;4111;50.972;7.072;2022-11-20T03:45:12;100680.59;;;4.55;81.49
8140;BME280;4111;50.972;7.072;2022-11-20T03:47:39;100676.88;;;4.56;81.77
8140;BME280;4111;50.972;7.072;2022-11-20T03:50:06;100677.06;;;4.55;81.59
8140;BME280;4111;50.972;7.072;2022-11-20T03:52:33;100674.19;;;4.56;81.71
8140;BME280;4111;50.972;7.072;2022-11-20T03:54:59;100677.50;;;4.59;81.63
8140;BME280;4111;50.972;7.072;2022-11-20T03:57:26;100670.03;;;4.61;81.92
8140;BME280;4111;50.972;7.072;2022-11-20T03:59:52;100676.63;;;4.58;82.08
8140;BME280;4111;50.972;7.072;2022-11-20T04:02:19;100669.22;;;4.53;81.82
8140;BME280;4111;50.972;7.072;2022-11-20T04:04:45;100675.41;;;4.54;81.82
8140;BME280;4111;50.972;7.072;2022-11-20T04:07:11;100678.09;;;4.61;81.94
8140;BME280;4111;50.972;7.072;2022-11-20T04:09:38;100677.50;;;4.59;82.43
8140;BME280;4111;50.972;7.072;2022-11-20T04:12:04;100674.19;;;4.56;81.90
8140;BME280;4111;50.972;7.072;2022-11-20T04:14:31;100666.72;;;4.59;81.92
8140;BME280;4111;50.972;7.072;2022-11-20T04:16:57;100665.91;;;4.51;81.75
8140;BME280;4111;50.972;7.072;2022-11-20T04:19:24;100670.66;;;4.49;82.00
8140;BME280;4111;50.972;7.072;2022-11-20T04:21:50;100663.00;;;4.46;82.41
8140;BME280;4111;50.972;7.072;2022-11-20T04:24:16;100666.31;;;4.55;82.67
8140;BME280;4111;50.972;7.072;2022-11-20T04:26:43;100672.94;;;4.52;82.58
8140;BME280;4111;50.972;7.072;2022-11-20T04:29:11;100660.50;;;4.58;82.85
8140;BME280;4111;50.972;7.072;2022-11-20T04:31:38;100654.31;;;4.51;82.73
8140;BME280;4111;50.972;7.072;2022-11-20T04:34:06;100649.78;;;4.51;83.19
8140;BME280;4111;50.972;7.072;2022-11-20T04:36:33;100647.69;;;4.53;83.29
8140;BME280;4111;50.972;7.072;2022-11-20T04:39:04;100655.97;;;4.45;83.28
8140;BME280;4111;50.972;7.072;2022-11-20T04:41:33;100651.63;;;4.51;83.29
8140;BME280;4111;50.972;7.072;2022-11-20T04:44:02;100652.25;;;4.46;83.52
8140;BME280;4111;50.972;7.072;2022-11-20T04:46:31;100651.63;;;4.44;83.13
8140;BME280;4111;50.972;7.072;2022-11-20T04:48:58;100659.72;;;4.51;83.13
8140;BME280;4111;50.972;7.072;2022-11-20T04:51:25;100668.81;;;4.43;83.35
8140;BME280;4111;50.972;7.072;2022-11-20T04:53:52;100673.34;;;4.49;83.03
8140;BME280;4111;50.972;7.072;2022-11-20T04:56:19;100670.88;;;4.41;83.25
8140;BME280;4111;50.972;7.072;2022-11-20T04:58:45;100663.22;;;4.51;83.46
8140;BME280;4111;50.972;7.072;2022-11-20T05:01:14;100667.97;;;4.63;83.02
8140;BME280;4111;50.972;7.072;2022-11-20T05:03:41;100671.06;;;4.53;83.10
8140;BME280;4111;50.972;7.072;2022-11-20T05:06:11;100675.41;;;4.47;83.16
8140;BME280;4111;50.972;7.072;2022-11-20T05:08:38;100669.22;;;4.53;83.04
8140;BME280;4111;50.972;7.072;2022-11-20T05:11:17;100677.88;;;4.55;83.23
8140;BME280;4111;50.972;7.072;2022-11-20T05:13:44;100680.78;;;4.61;83.54
8140;BME280;4111;50.972;7.072;2022-11-20T05:16:16;100677.44;;;4.72;83.67
8140;BME280;4111;50.972;7.072;2022-11-20T05:18:43;100682.81;;;4.72;82.90
8140;BME280;4111;50.972;7.072;2022-11-20T05:21:10;100681.00;;;4.72;82.43
8140;BME280;4111;50.972;7.072;2022-11-20T05:23:38;100673.75;;;4.60;82.76
8140;BME280;4111;50.972;7.072;2022-11-20T05:26:07;100676.25;;;4.54;82.89
8140;BME280;4111;50.972;7.072;2022-11-20T05:28:34;100679.97;;;4.67;83.28
8140;BME280;4111;50.972;7.072;2022-11-20T05:31:24;100671.69;;;4.55;83.46
8140;BME280;4111;50.972;7.072;2022-11-20T05:33:53;100672.09;;;4.59;83.54
8140;BME280;4111;50.972;7.072;2022-11-20T05:36:20;100665.06;;;4.64;83.47
8140;BME280;4111;50.972;7.072;2022-11-20T05:38:47;100667.53;;;4.66;83.12
8140;BME280;4111;50.972;7.072;2022-11-20T05:41:18;100662.97;;;4.73;83.44
8140;BME280;4111;50.972;7.072;2022-11-20T05:43:46;100662.16;;;4.72;83.33
8140;BME280;4111;50.972;7.072;2022-11-20T05:46:16;100674.16;;;4.70;83.54
8140;BME280;4111;50.972;7.072;2022-11-20T05:48:44;100664.66;;;4.61;83.63
8140;BME280;4111;50.972;7.072;2022-11-20T05:51:12;100668.16;;;4.61;83.77
8140;BME280;4111;50.972;7.072;2022-11-20T05:53:39;100663.81;;;4.67;83.97
8140;BME280;4111;50.972;7.072;2022-11-20T05:56:15;100672.91;;;4.66;83.79
8140;BME280;4111;50.972;7.072;2022-11-20T05:58:42;100671.69;;;4.55;83.90
8140;BME280;4111;50.972;7.072;2022-11-20T06:01:15;100669.22;;;4.53;83.99
8140;BME280;4111;50.972;7.072;2022-11-20T06:03:42;100662.81;;;4.54;84.15
8140;BME280;4111;50.972;7.072;2022-11-20T06:06:12;100667.13;;;4.55;84.02
8140;BME280;4111;50.972;7.072;2022-11-20T06:08:38;100667.56;;;4.59;84.11
8140;BME280;4111;50.972;7.072;2022-11-20T06:11:06;100667.97;;;4.63;84.16
8140;BME280;4111;50.972;7.072;2022-11-20T06:13:33;100674.56;;;4.67;84.38
8140;BME280;4111;50.972;7.072;2022-11-20T06:16:06;100669.00;;;4.62;84.79
8140;BME280;4111;50.972;7.072;2022-11-20T06:18:33;100673.13;;;4.57;84.68
8140;BME280;4111;50.972;7.072;2022-11-20T06:23:31;100665.50;;;4.54;84.52
8140;BME280;4111;50.972;7.072;2022-11-20T06:26:11;100661.75;;;4.55;84.84
8140;BME280;4111;50.972;7.072;2022-11-20T06:28:38;100660.13;;;4.54;84.51
8140;BME280;4111;50.972;7.072;2022-11-20T06:31:06;100665.06;;;4.57;84.70
8140;BME280;4111;50.972;7.072;2022-11-20T06:33:32;100657.81;;;4.65;85.13
8140;BME280;4111;50.972;7.072;2022-11-20T06:36:00;100655.53;;;4.62;85.14
8140;BME280;4111;50.972;7.072;2022-11-20T06:38:35;100650.19;;;4.55;85.20
8140;BME280;4111;50.972;7.072;2022-11-20T06:41:03;100662.59;;;4.63;85.05
8140;BME280;4111;50.972;7.072;2022-11-20T06:43:30;100666.72;;;4.59;85.01
8140;BME280;4111;50.972;7.072;2022-11-20T06:45:58;100667.13;;;4.55;84.90
8140;BME280;4111;50.972;7.072;2022-11-20T06:48:26;100673.97;;;4.51;85.16
8140;BME280;4111;50.972;7.072;2022-11-20T06:50:53;100672.94;;;4.52;85.40
8140;BME280;4111;50.972;7.072;2022-11-20T06:53:21;100678.72;;;4.49;85.65
8140;BME280;4111;50.972;7.072;2022-11-20T06:55:48;100678.72;;;4.49;85.69
8140;BME280;4111;50.972;7.072;2022-11-20T06:58:15;100671.91;;;4.53;85.73
8140;BME280;4111;50.972;7.072;2022-11-20T07:00:43;100676.25;;;4.54;85.38
8140;BME280;4111;50.972;7.072;2022-11-20T07:03:11;100675.81;;;4.57;85.65
8140;BME280;4111;50.972;7.072;2022-11-20T07:05:38;100673.97;;;4.65;85.72
8140;BME280;4111;50.972;7.072;2022-11-20T07:08:05;100676.66;;;4.65;85.29
8140;BME280;4111;50.972;7.072;2022-11-20T07:10:32;100687.63;;;4.56;85.58
8140;BME280;4111;50.972;7.072;2022-11-20T07:12:58;100684.50;;;4.46;85.99
8140;BME280;4111;50.972;7.072;2022-11-20T07:15:25;100681.22;;;4.51;86.42
8140;BME280;4111;50.972;7.072;2022-11-20T07:17:52;100693.84;;;4.50;86.25
8140;BME280;4111;50.972;7.072;2022-11-20T07:20:18;100687.63;;;4.50;86.38
8140;BME280;4111;50.972;7.072;2022-11-20T07:22:45;100688.88;;;4.61;86.29
8140;BME280;4111;50.972;7.072;2022-11-20T07:25:11;100695.47;;;4.65;86.56
8140;BME280;4111;50.972;7.072;2022-11-20T07:27:38;100704.78;;;4.55;86.70
8140;BME280;4111;50.972;7.072;2022-11-20T07:30:04;100707.28;;;4.50;87.04
8140;BME280;4111;50.972;7.072;2022-11-20T07:32:31;100704.38;;;4.59;87.36
8140;BME280;4111;50.972;7.072;2022-11-20T07:34:57;100703.13;;;4.61;87.29
8140;BME280;4111;50.972;7.072;2022-11-20T07:37:24;100696.91;;;4.67;87.18
8140;BME280;4111;50.972;7.072;2022-11-20T07:39:50;100694.44;;;4.72;87.51
8140;BME280;4111;50.972;7.072;2022-11-20T07:42:17;100689.88;;;4.73;86.82
8140;BME280;4111;50.972;7.072;2022-11-20T07:44:43;100690.91;;;4.72;87.46
8140;BME280;4111;50.972;7.072;2022-11-20T07:47:09;100699.63;;;4.61;87.42
8140;BME280;4111;50.972;7.072;2022-11-20T07:49:36;100703.16;;;4.54;87.86
8140;BME280;4111;50.972;7.072;2022-11-20T07:52:02;100703.97;;;4.55;88.12
8140;BME280;4111;50.972;7.072;2022-11-20T07:54:30;100694.03;;;4.49;88.22
8140;BME280;4111;50.972;7.072;2022-11-20T07:56:57;100688.25;;;4.45;88.24
8140;BME280;4111;50.972;7.072;2022-11-20T07:59:23;100691.16;;;4.50;88.45
8140;BME280;4111;50.972;7.072;2022-11-20T08:01:49;100682.44;;;4.55;88.75
8140;BME280;4111;50.972;7.072;2022-11-20T08:04:16;100683.25;;;4.69;88.60
8140;BME280;4111;50.972;7.072;2022-11-20T08:06:42;100686.16;;;4.74;88.50
8140;BME280;4111;50.972;7.072;2022-11-20T08:09:09;100693.00;;;4.63;88.60
8140;BME280;4111;50.972;7.072;2022-11-20T08:11:35;100686.16;;;4.67;88.74
8140;BME280;4111;50.972;7.072;2022-11-20T08:14:20;100680.78;;;4.61;88.73
8140;BME280;4111;50.972;7.072;2022-11-20T08:16:48;100689.47;;;4.56;88.59
8140;BME280;4111;50.972;7.072;2022-11-20T08:19:16;100684.53;;;4.53;89.07
8140;BME280;4111;50.972;7.072;2022-11-20T08:21:44;100687.00;;;4.54;88.78
8140;BME280;4111;50.972;7.072;2022-11-20T08:24:11;100684.91;;;4.50;88.88
8140;BME280;4111;50.972;7.072;2022-11-20T08:26:38;100685.13;;;4.62;88.87
8140;BME280;4111;50.972;7.072;2022-11-20T08:29:05;100684.72;;;4.78;88.80
8140;BME280;4111;50.972;7.072;2022-11-20T08:31:32;100688.63;;;4.82;88.68
8140;BME280;4111;50.972;7.072;2022-11-20T08:33:59;100686.56;;;4.71;88.34
8140;BME280;4111;50.972;7.072;2022-11-20T08:36:25;100688.44;;;4.64;88.71
8140;BME280;4111;50.972;7.072;2022-11-20T08:38:54;100692.78;;;4.65;88.99
8140;BME280;4111;50.972;7.072;2022-11-20T08:41:21;100696.91;;;4.81;89.15
8140;BME280;4111;50.972;7.072;2022-11-20T08:43:59;100696.88;;;4.87;88.95
8140;BME280;4111;50.972;7.072;2022-11-20T08:46:34;100700.59;;;5.00;88.57
8140;BME280;4111;50.972;7.072;2022-11-20T08:49:01;100699.72;;;5.12;88.88
8140;BME280;4111;50.972;7.072;2022-11-20T08:51:28;100691.06;;;5.04;88.38
8140;BME280;4111;50.972;7.072;2022-11-20T08:53:54;100692.94;;;4.96;88.16
8140;BME280;4111;50.972;7.072;2022-11-20T08:56:21;100701.84;;;5.04;88.13
8140;BME280;4111;50.972;7.072;2022-11-20T08:58:47;100700.13;;;5.16;87.93
8140;BME280;4111;50.972;7.072;2022-11-20T09:01:33;100690.38;;;5.22;87.40
8140;BME280;4111;50.972;7.072;2022-11-20T09:04:00;100690.97;;;5.30;87.22
8140;BME280;4111;50.972;7.072;2022-11-20T09:06:26;100696.34;;;5.30;86.84
8140;BME280;4111;50.972;7.072;2022-11-20T09:08:54;100697.56;;;5.41;86.81
8140;BME280;4111;50.972;7.072;2022-11-20T09:11:21;100686.34;;;5.44;86.67
8140;BME280;4111;50.972;7.072;2022-11-20T09:13:47;100688.88;;;5.39;86.54
8140;BME280;4111;50.972;7.072;2022-11-20T09:16:14;100690.56;;;5.27;86.43
8140;BME280;4111;50.972;7.072;2022-11-20T09:18:41;100694.31;;;5.19;86.16
8140;BME280;4111;50.972;7.072;2022-11-20T09:21:12;100684.56;;;5.31;87.17
8140;BME280;4111;50.972;7.072;2022-11-20T09:23:40;100685.50;;;5.50;87.48
8140;BME280;4111;50.972;7.072;2022-11-20T09:26:11;100682.19;;;5.48;87.25
8140;BME280;4111;50.972;7.072;2022-11-20T09:28:39;100681.38;;;5.48;87.18
8140;BME280;4111;50.972;7.072;2022-11-20T09:31:06;100677.59;;;5.55;87.24
8140;BME280;4111;50.972;7.072;2022-11-20T09:33:33;100678.28;;;5.44;86.48
8140;BME280;4111;50.972;7.072;2022-11-20T09:36:00;100673.28;;;5.48;86.11
8140;BME280;4111;50.972;7.072;2022-11-20T09:38:27;100671.41;;;5.55;85.86
8140;BME280;4111;50.972;7.072;2022-11-20T09:41:10;100666.38;;;5.65;85.70
8140;BME280;4111;50.972;7.072;2022-11-20T09:46:37;100662.97;;;5.76;85.41
8140;BME280;4111;50.972;7.072;2022-11-20T09:49:26;100654.88;;;5.83;85.15
8140;BME280;4111;50.972;7.072;2022-11-20T09:52:00;100658.31;;;5.97;84.58
8140;BME280;4111;50.972;7.072;2022-11-20T09:54:33;100663.25;;;6.00;84.47
8140;BME280;4111;50.972;7.072;2022-11-20T09:57:05;100658.66;;;6.07;83.66
8140;BME280;4111;50.972;7.072;2022-11-20T09:59:46;100657.50;;;5.90;82.62
8140;BME280;4111;50.972;7.072;2022-11-20T10:05:24;100657.88;;;6.00;82.76
8140;BME280;4111;50.972;7.072;2022-11-20T10:08:10;100656.25;;;5.99;82.72
8140;BME280;4111;50.972;7.072;2022-11-20T10:10:45;100648.81;;;5.88;81.74
8140;BME280;4111;50.972;7.072;2022-11-20T10:13:40;100657.88;;;6.00;82.23
8140;BME280;4111;50.972;7.072;2022-11-20T10:16:42;100663.25;;;6.00;82.02
8140;BME280;4111;50.972;7.072;2022-11-20T10:24:52;100660.47;;;5.82;82.04
8140;BME280;4111;50.972;7.072;2022-11-20T10:27:25;100653.78;;;5.91;82.25
8140;BME280;4111;50.972;7.072;2022-11-20T10:30:03;100647.00;;;5.82;82.34
8140;BME280;4111;50.972;7.072;2022-11-20T10:32:35;100647.59;;;5.84;82.81
8140;BME280;4111;50.972;7.072;2022-11-20T10:35:19;100633.84;;;5.67;82.94
8140;BME280;4111;50.972;7.072;2022-11-20T10:37:53;100632.84;;;5.61;82.90
8140;BME280;4111;50.972;7.072;2022-11-20T10:40:32;100637.38;;;5.61;83.24
8140;BME280;4111;50.972;7.072;2022-11-20T10:43:08;100632.38;;;5.71;83.31
8140;BME280;4111;50.972;7.072;2022-11-20T10:45:53;100623.19;;;5.79;83.67
8140;BME280;4111;50.972;7.072;2022-11-20T10:48:22;100619.63;;;5.85;83.76
8140;BME280;4111;50.972;7.072;2022-11-20T10:51:08;100618.28;;;5.94;83.44
8140;BME280;4111;50.972;7.072;2022-11-20T10:53:44;100611.03;;;6.01;83.17
8140;BME280;4111;50.972;7.072;2022-11-20T10:56:30;100612.63;;;6.09;83.26
8140;BME280;4111;50.972;7.072;2022-11-20T11:01:46;100596.06;;;6.05;83.02
8140;BME280;4111;50.972;7.072;2022-11-20T11:07:01;100582.59;;;6.05;83.21
8140;BME280;4111;50.972;7.072;2022-11-20T11:09:34;100573.63;;;6.11;83.66
8140;BME280;4111;50.972;7.072;2022-11-20T11:12:07;100575.41;;;6.18;83.64
8140;BME280;4111;50.972;7.072;2022-11-20T11:14:48;100570.59;;;6.26;83.39
8140;BME280;4111;50.972;7.072;2022-11-20T11:17:34;100572.50;;;6.19;83.17
8140;BME280;4111;50.972;7.072;2022-11-20T11:20:05;100571.22;;;6.22;83.34
8140;BME280;4111;50.972;7.072;2022-11-20T11:22:34;100558.97;;;6.26;83.59
8140;BME280;4111;50.972;7.072;2022-11-20T11:25:19;100561.13;;;6.17;83.21
8140;BME280;4111;50.972;7.072;2022-11-20T11:27:50;100549.56;;;6.10;83.15
8140;BME280;4111;50.972;7.072;2022-11-20T11:30:19;100549.53;;;6.17;83.54
8140;BME280;4111;50.972;7.072;2022-11-20T11:32:46;100549.56;;;6.10;83.17
8140;BME280;4111;50.972;7.072;2022-11-20T11:35:27;100535.38;;;5.96;83.43
8140;BME280;4111;50.972;7.072;2022-11-20T11:38:06;100540.66;;;6.09;83.84
8140;BME280;4111;50.972;7.072;2022-11-20T11:40:35;100541.56;;;6.03;83.57
8140;BME280;4111;50.972;7.072;2022-11-20T11:43:06;100537.88;;;5.98;83.76
8140;BME280;4111;50.972;7.072;2022-11-20T11:45:54;100529.13;;;6.02;84.07
8140;BME280;4111;50.972;7.072;2022-11-20T11:48:21;100526.50;;;6.14;84.13
8140;BME280;4111;50.972;7.072;2022-11-20T11:50:50;100524.41;;;6.16;83.85
8140;BME280;4111;50.972;7.072;2022-11-20T11:53:18;100517.22;;;6.10;83.60
8140;BME280;4111;50.972;7.072;2022-11-20T11:56:07;100518.50;;;6.07;83.69
8140;BME280;4111;50.972;7.072;2022-11-20T11:58:47;100521.47;;;5.99;84.38
8140;BME280;4111;50.972;7.072;2022-11-20T12:01:34;100515.19;;;6.05;84.23
8140;BME280;4111;50.972;7.072;2022-11-20T12:06:39;100492.63;;;6.06;84.33
8140;BME280;4111;50.972;7.072;2022-11-20T12:09:10;100502.03;;;5.97;84.37
8140;BME280;4111;50.972;7.072;2022-11-20T12:11:47;100493.22;;;6.08;84.71
8140;BME280;4111;50.972;7.072;2022-11-20T12:14:24;100493.50;;;6.19;84.85
8140;BME280;4111;50.972;7.072;2022-11-20T12:16:54;100492.63;;;6.25;85.08
8140;BME280;4111;50.972;7.072;2022-11-20T12:19:22;100484.06;;;6.28;85.03
8140;BME280;4111;50.972;7.072;2022-11-20T12:24:57;100474.78;;;6.42;84.82
8140;BME280;4111;50.972;7.072;2022-11-20T12:27:40;100466.47;;;6.44;84.12
8140;BME280;4111;50.972;7.072;2022-11-20T12:30:13;100463.78;;;6.25;83.92
8140;BME280;4111;50.972;7.072;2022-11-20T12:35:35;100466.63;;;6.30;84.37
8140;BME280;4111;50.972;7.072;2022-11-20T12:41:12;100462.28;;;6.11;84.11
8140;BME280;4111;50.972;7.072;2022-11-20T12:44:16;100453.50;;;6.15;84.47
8140;BME280;4111;50.972;7.072;2022-11-20T12:47:21;100453.38;;;6.29;84.53
8140;BME280;4111;50.972;7.072;2022-11-20T12:50:08;100444.84;;;6.32;84.41
8140;BME280;4111;50.972;7.072;2022-11-20T12:52:53;100441.84;;;6.40;84.68
8140;BME280;4111;50.972;7.072;2022-11-20T12:55:46;100430.94;;;6.47;84.12
8140;BME280;4111;50.972;7.072;2022-11-20T12:58:27;100437.91;;;6.54;84.19
8140;BME280;4111;50.972;7.072;2022-11-20T13:03:48;100415.91;;;6.58;84.33
8140;BME280;4111;50.972;7.072;2022-11-20T13:06:19;100418.84;;;6.68;84.41
8140;BME280;4111;50.972;7.072;2022-11-20T13:08:54;100412.53;;;6.74;84.34
8140;BME280;4111;50.972;7.072;2022-11-20T13:14:33;100401.19;;;6.84;83.80
8140;BME280;4111;50.972;7.072;2022-11-20T13:19:40;100382.19;;;6.90;83.85
8140;BME280;4111;50.972;7.072;2022-11-20T13:22:08;100387.72;;;6.84;83.50
8140;BME280;4111;50.972;7.072;2022-11-20T13:24:35;100383.34;;;6.83;84.05
8140;BME280;4111;50.972;7.072;2022-11-20T13:27:02;100373.41;;;6.83;83.65
8140;BME280;4111;50.972;7.072;2022-11-20T13:29:30;100370.69;;;6.83;84.04
8140;BME280;4111;50.972;7.072;2022-11-20T13:32:04;100368.22;;;6.82;83.72
8140;BME280;4111;50.972;7.072;2022-11-20T13:34:34;100359.06;;;6.83;83.76
8140;BME280;4111;50.972;7.072;2022-11-20T13:37:02;100366.72;;;6.86;83.87
8140;BME280;4111;50.972;7.072;2022-11-20T13:39:36;100356.97;;;6.97;84.07
8140;BME280;4111;50.972;7.072;2022-11-20T13:42:23;100357.31;;;6.88;83.92
8140;BME280;4111;50.972;7.072;2022-11-20T13:44:54;100340.09;;;6.89;84.47
8140;BME280;4111;50.972;7.072;2022-11-20T13:47:24;100339.75;;;6.98;84.11
8140;BME280;4111;50.972;7.072;2022-11-20T13:49:52;100333.88;;;7.01;84.12
8140;BME280;4111;50.972;7.072;2022-11-20T14:00:25;100322.63;;;7.15;84.24
8140;BME280;4111;50.972;7.072;2022-11-20T14:03:09;100311.00;;;7.15;84.13
8140;BME280;4111;50.972;7.072;2022-11-20T14:05:40;100308.63;;;7.19;84.42
8140;BME280;4111;50.972;7.072;2022-11-20T14:08:23;100303.94;;;7.26;84.50
8140;BME280;4111;50.972;7.072;2022-11-20T14:11:02;100300.53;;;7.30;84.46
8140;BME280;4111;50.972;7.072;2022-11-20T14:13:28;100295.50;;;7.34;84.19
8140;BME280;4111;50.972;7.072;2022-11-20T14:15:58;100293.28;;;7.31;83.93
8140;BME280;4111;50.972;7.072;2022-11-20T14:18:26;100291.63;;;7.30;84.19
8140;BME280;4111;50.972;7.072;2022-11-20T14:20:52;100280.13;;;7.23;84.56
8140;BME280;4111;50.972;7.072;2022-11-20T14:23:29;100275.06;;;7.26;84.75
8140;BME280;4111;50.972;7.072;2022-11-20T14:25:56;100268.13;;;7.30;84.38
8140;BME280;4111;50.972;7.072;2022-11-20T14:28:26;100270.16;;;7.23;84.91
8140;BME280;4111;50.972;7.072;2022-11-20T14:30:54;100268.72;;;7.21;84.73
8140;BME280;4111;50.972;7.072;2022-11-20T14:33:22;100263.69;;;7.24;84.78
8140;BME280;4111;50.972;7.072;2022-11-20T14:35:55;100258.75;;;7.21;84.66